createdAt,value
2022-08-23T00:02:27.786Z,11.90
2022-08-23T00:04:55.868Z,11.73
2022-08-23T00:07:41.858Z,13.65
2022-08-23T00:10:13.642Z,16.30
2022-08-23T00:12:42.908Z,13.27
2022-08-23T00:15:13.068Z,14.82
2022-08-23T00:17:42.421Z,13.70
2022-08-23T00:20:14.134Z,16.83
2022-08-23T00:22:42.581Z,17.73
2022-08-23T00:25:13.231Z,16.75
2022-08-23T00:27:40.860Z,15.25
2022-08-23T00:30:11.101Z,15.00
2022-08-23T00:32:40.537Z,15.40
2022-08-23T00:35:10.276Z,12.93
2022-08-23T00:37:38.851Z,20.48
2022-08-23T00:40:08.735Z,15.50
2022-08-23T00:43:19.190Z,12.85
2022-08-23T00:46:24.830Z,17.33
2022-08-23T00:48:53.059Z,17.83
2022-08-23T00:51:52.640Z,13.60
2022-08-23T00:54:24.662Z,14.95
2022-08-23T00:56:54.689Z,14.85
2022-08-23T00:59:22.856Z,14.57
2022-08-23T01:01:51.033Z,13.77
2022-08-23T01:04:19.960Z,14.80
2022-08-23T01:06:50.950Z,15.75
2022-08-23T01:09:21.346Z,15.88
2022-08-23T01:11:55.382Z,16.00
2022-08-23T01:14:52.239Z,16.80
2022-08-23T01:17:26.362Z,15.93
2022-08-23T01:20:01.636Z,16.52
2022-08-23T01:22:55.507Z,14.82
2022-08-23T01:25:25.149Z,16.27
2022-08-23T01:27:53.230Z,18.98
2022-08-23T01:30:25.349Z,16.27
2022-08-23T01:32:57.231Z,22.98
2022-08-23T01:35:39.109Z,17.92
2022-08-23T01:38:08.266Z,19.48
2022-08-23T01:40:36.783Z,18.85
2022-08-23T01:43:06.300Z,20.00
2022-08-23T01:45:35.519Z,14.90
2022-08-23T01:48:03.602Z,20.05
2022-08-23T01:50:32.226Z,17.23
2022-08-23T01:53:00.676Z,18.38
2022-08-23T01:55:29.699Z,18.75
2022-08-23T01:58:00.521Z,16.27
2022-08-23T02:00:33.075Z,18.55
2022-08-23T02:03:01.234Z,18.55
2022-08-23T02:05:29.399Z,21.20
2022-08-23T02:08:17.959Z,21.10
2022-08-23T02:10:45.818Z,18.30
2022-08-23T02:13:13.368Z,27.38
2022-08-23T02:15:47.385Z,21.10
2022-08-23T02:18:16.238Z,17.92
2022-08-23T02:20:49.298Z,19.27
2022-08-23T02:23:18.398Z,21.13
2022-08-23T02:25:46.038Z,22.23
2022-08-23T02:28:14.348Z,21.17
2022-08-23T02:30:41.956Z,19.88
2022-08-23T02:33:11.296Z,18.85
2022-08-23T02:35:41.851Z,16.33
2022-08-23T02:38:11.831Z,18.20
2022-08-23T02:40:41.889Z,16.00
2022-08-23T02:43:09.571Z,17.95
2022-08-23T02:45:38.768Z,18.52
2022-08-23T02:48:08.846Z,18.23
2022-08-23T02:50:46.869Z,16.40
2022-08-23T02:53:14.536Z,18.90
2022-08-23T02:55:45.935Z,18.35
2022-08-23T02:58:13.759Z,20.58
2022-08-23T03:00:41.400Z,19.70
2022-08-23T03:03:09.190Z,19.33
2022-08-23T03:05:36.848Z,18.60
2022-08-23T03:08:05.478Z,22.75
2022-08-23T03:10:47.448Z,20.90
2022-08-23T03:13:16.459Z,19.73
2022-08-23T03:15:46.126Z,20.48
2022-08-23T03:18:14.238Z,19.92
2022-08-23T03:20:42.918Z,18.65
2022-08-23T03:23:12.044Z,19.42
2022-08-23T03:25:40.539Z,17.80
2022-08-23T03:28:16.951Z,18.08
2022-08-23T03:30:46.221Z,18.45
2022-08-23T03:33:14.258Z,16.77
2022-08-23T03:35:42.948Z,16.85
2022-08-23T03:38:14.280Z,17.33
2022-08-23T03:40:43.768Z,18.05
2022-08-23T03:43:12.099Z,17.23
2022-08-23T03:45:39.735Z,21.10
2022-08-23T03:48:08.435Z,18.08
2022-08-23T03:50:36.334Z,22.15
2022-08-23T03:53:04.799Z,15.75
2022-08-23T03:55:33.000Z,20.92
2022-08-23T03:58:01.202Z,18.67
2022-08-23T04:00:29.159Z,17.95
2022-08-23T04:02:56.709Z,19.52
2022-08-23T04:05:26.209Z,18.13
2022-08-23T04:08:12.083Z,20.00
2022-08-23T04:10:42.149Z,19.55
2022-08-23T04:13:10.588Z,18.60
2022-08-23T04:15:39.010Z,18.02
2022-08-23T04:18:09.317Z,19.02
2022-08-23T04:20:38.145Z,20.23
2022-08-23T04:23:06.969Z,14.98
2022-08-23T04:25:45.788Z,14.02
2022-08-23T04:28:14.005Z,20.73
2022-08-23T04:30:41.618Z,19.20
2022-08-23T04:33:16.205Z,16.60
2022-08-23T04:35:46.299Z,16.13
2022-08-23T04:38:18.359Z,17.48
2022-08-23T04:41:13.402Z,15.57
2022-08-23T04:43:44.138Z,18.40
2022-08-23T04:46:15.720Z,15.27
2022-08-23T04:48:46.537Z,19.17
2022-08-23T04:51:15.654Z,17.00
2022-08-23T04:53:44.158Z,15.60
2022-08-23T04:56:30.758Z,15.50
2022-08-23T04:58:58.400Z,14.90
2022-08-23T05:01:27.162Z,17.42
2022-08-23T05:03:56.039Z,14.23
2022-08-23T05:06:26.022Z,15.98
2022-08-23T05:08:53.799Z,18.15
2022-08-23T05:11:22.138Z,20.23
2022-08-23T05:13:50.539Z,19.10
2022-08-23T05:16:18.648Z,17.23
2022-08-23T05:18:55.365Z,15.85
2022-08-23T05:21:24.754Z,19.88
2022-08-23T05:23:54.692Z,23.58
2022-08-23T05:26:26.397Z,21.80
2022-08-23T05:28:55.499Z,20.67
2022-08-23T05:31:30.647Z,25.20
2022-08-23T05:34:03.771Z,20.30
2022-08-23T05:36:47.442Z,22.98
2022-08-23T05:39:33.026Z,23.05
2022-08-23T05:42:08.733Z,24.60
2022-08-23T05:44:37.920Z,23.35
2022-08-23T05:47:11.075Z,28.88
2022-08-23T05:50:07.008Z,21.92
2022-08-23T05:52:37.457Z,29.10
2022-08-23T05:55:07.065Z,30.17
2022-08-23T05:57:41.337Z,29.23
2022-08-23T06:00:13.907Z,27.48
2022-08-23T06:02:49.463Z,28.70
2022-08-23T06:05:20.627Z,30.75
2022-08-23T06:07:51.250Z,32.65
2022-08-23T06:10:21.674Z,28.30
2022-08-23T06:12:55.666Z,30.42
2022-08-23T06:15:23.363Z,31.08
2022-08-23T06:17:51.313Z,36.80
2022-08-23T06:20:19.485Z,29.67
2022-08-23T06:23:02.338Z,31.67
2022-08-23T06:25:30.396Z,32.75
2022-08-23T06:28:07.956Z,31.13
2022-08-23T06:30:40.129Z,31.25
2022-08-23T06:33:13.993Z,32.72
2022-08-23T06:35:49.158Z,34.92
2022-08-23T06:38:36.756Z,31.77
2022-08-23T06:41:13.455Z,32.80
2022-08-23T06:44:00.733Z,35.63
2022-08-23T06:46:51.348Z,32.88
2022-08-23T06:49:19.974Z,36.35
2022-08-23T06:51:51.253Z,31.42
2022-08-23T06:54:47.389Z,33.70
2022-08-23T06:57:26.975Z,38.10
2022-08-23T07:00:22.561Z,35.78
2022-08-23T07:03:05.600Z,34.42
2022-08-23T07:05:56.013Z,34.17
2022-08-23T07:08:28.256Z,32.05
2022-08-23T07:10:58.635Z,28.40
2022-08-23T07:13:26.275Z,31.52
2022-08-23T07:16:03.193Z,34.78
2022-08-23T07:18:35.692Z,29.95
2022-08-23T07:21:05.417Z,39.17
2022-08-23T07:23:35.160Z,33.65
2022-08-23T07:26:11.656Z,31.65
2022-08-23T07:28:41.185Z,34.22
2022-08-23T07:31:16.981Z,32.47
2022-08-23T07:33:45.956Z,37.33
2022-08-23T07:36:22.342Z,35.05
2022-08-23T07:38:51.630Z,34.35
2022-08-23T07:41:24.821Z,34.20
2022-08-23T07:43:52.683Z,32.30
2022-08-23T07:46:20.391Z,33.83
2022-08-23T07:48:56.661Z,29.50
2022-08-23T07:51:27.775Z,31.00
2022-08-23T07:53:58.316Z,30.08
2022-08-23T07:56:25.839Z,29.77
2022-08-23T07:58:58.823Z,30.90
2022-08-23T08:02:01.770Z,29.10
2022-08-23T08:04:29.707Z,28.85
2022-08-23T08:07:18.206Z,28.40
2022-08-23T08:09:49.525Z,27.83
2022-08-23T08:12:17.603Z,25.55
2022-08-23T08:14:51.108Z,29.45
2022-08-23T08:17:26.855Z,34.58
2022-08-23T08:20:31.162Z,25.67
2022-08-23T08:23:21.596Z,28.73
2022-08-23T08:26:16.432Z,27.48
2022-08-23T08:28:54.811Z,29.33
2022-08-23T08:31:24.085Z,28.85
2022-08-23T08:33:51.828Z,31.83
2022-08-23T08:36:40.099Z,31.50
2022-08-23T08:39:19.803Z,40.90
2022-08-23T08:42:13.170Z,33.55
2022-08-23T08:44:56.750Z,32.67
2022-08-23T08:48:03.134Z,33.00
2022-08-23T08:50:56.762Z,36.47
2022-08-23T08:53:37.082Z,32.67
2022-08-23T08:56:23.754Z,34.63
2022-08-23T08:59:06.721Z,35.60
2022-08-23T09:04:05.851Z,32.05
2022-08-23T09:07:08.000Z,35.35
2022-08-23T09:09:44.812Z,34.75
2022-08-23T09:12:37.877Z,35.13
2022-08-23T09:15:53.866Z,33.25
2022-08-23T09:18:24.057Z,26.30
2022-08-23T09:20:55.537Z,36.40
2022-08-23T09:23:34.501Z,33.30
2022-08-23T09:26:15.821Z,31.30
2022-08-23T09:28:46.151Z,31.55
2022-08-23T09:31:42.126Z,32.40
2022-08-23T09:34:17.391Z,32.75
2022-08-23T09:37:27.411Z,34.67
2022-08-23T09:40:19.323Z,34.25
2022-08-23T09:43:08.063Z,29.48
2022-08-23T09:45:39.021Z,34.75
2022-08-23T09:48:13.538Z,31.65
2022-08-23T09:50:56.161Z,32.15
2022-08-23T09:53:28.242Z,31.00
2022-08-23T09:56:11.220Z,31.30
2022-08-23T09:58:47.261Z,31.75
2022-08-23T10:01:27.978Z,25.58
2022-08-23T10:04:17.323Z,26.48
2022-08-23T10:06:46.521Z,27.52
2022-08-23T10:09:33.394Z,26.33
2022-08-23T10:12:07.463Z,24.55
2022-08-23T10:14:35.926Z,24.60
2022-08-23T10:17:36.490Z,26.00
2022-08-23T10:20:18.330Z,23.50
2022-08-23T10:23:06.282Z,30.45
2022-08-23T10:25:57.645Z,25.40
2022-08-23T10:29:04.990Z,22.92
2022-08-23T10:31:42.043Z,25.13
2022-08-23T10:34:13.272Z,21.63
2022-08-23T10:37:07.811Z,22.38
2022-08-23T10:39:43.840Z,20.23
2022-08-23T10:42:49.111Z,20.33
2022-08-23T10:45:25.391Z,19.25
2022-08-23T10:48:04.799Z,18.95
2022-08-23T10:50:42.649Z,22.15
2022-08-23T10:53:19.781Z,17.38
2022-08-23T10:56:05.242Z,17.95
2022-08-23T10:58:53.310Z,15.45
2022-08-23T11:01:29.604Z,15.52
2022-08-23T11:04:05.142Z,17.58
2022-08-23T11:06:54.979Z,20.50
2022-08-23T11:09:22.541Z,16.75
2022-08-23T11:12:03.015Z,19.20
2022-08-23T11:14:34.080Z,16.08
2022-08-23T11:17:05.850Z,17.80
2022-08-23T11:20:10.007Z,16.73
2022-08-23T11:23:08.302Z,15.07
2022-08-23T11:25:41.781Z,15.48
2022-08-23T11:28:22.232Z,14.27
2022-08-23T11:31:11.791Z,19.27
2022-08-23T11:33:42.482Z,16.80
2022-08-23T11:36:09.969Z,14.60
2022-08-23T11:38:43.691Z,16.52
2022-08-23T11:41:20.249Z,18.40
2022-08-23T11:44:11.091Z,18.95
2022-08-23T11:46:55.451Z,15.90
2022-08-23T11:49:32.157Z,16.13
2022-08-23T11:52:21.443Z,15.90
2022-08-23T11:55:25.381Z,17.23
2022-08-23T11:58:21.530Z,22.63
2022-08-23T12:01:12.651Z,15.88
2022-08-23T12:04:10.586Z,15.63
2022-08-23T12:06:40.751Z,13.65
2022-08-23T12:09:20.481Z,16.23
2022-08-23T12:11:57.052Z,17.10
2022-08-23T12:14:42.922Z,15.18
2022-08-23T12:17:13.160Z,16.08
2022-08-23T12:19:46.816Z,19.67
2022-08-23T12:22:19.923Z,19.45
2022-08-23T12:24:58.082Z,14.40
2022-08-23T12:27:25.565Z,12.32
2022-08-23T12:29:57.418Z,14.27
2022-08-23T12:32:55.225Z,13.00
2022-08-23T12:35:41.520Z,12.20
2022-08-23T12:38:15.092Z,13.45
2022-08-23T12:40:49.950Z,14.27
2022-08-23T12:43:25.890Z,13.68
2022-08-23T12:45:55.880Z,14.85
2022-08-23T12:48:30.231Z,11.40
2022-08-23T12:51:10.802Z,12.15
2022-08-23T12:53:45.154Z,11.32
2022-08-23T12:56:31.309Z,11.88
2022-08-23T12:59:05.075Z,11.63
2022-08-23T13:01:37.298Z,11.27
2022-08-23T13:04:05.231Z,16.95
2022-08-23T13:06:40.191Z,13.68
2022-08-23T13:09:33.452Z,13.55
2022-08-23T13:12:02.528Z,12.40
2022-08-23T13:14:33.389Z,13.50
2022-08-23T13:17:15.931Z,12.65
2022-08-23T13:19:44.210Z,14.02
2022-08-23T13:22:28.510Z,13.35
2022-08-23T13:25:28.189Z,14.63
2022-08-23T13:27:56.841Z,13.15
2022-08-23T13:30:31.691Z,14.15
2022-08-23T13:33:08.112Z,15.80
2022-08-23T13:35:47.255Z,17.38
2022-08-23T13:38:32.147Z,15.85
2022-08-23T13:41:03.011Z,14.52
2022-08-23T13:43:48.127Z,14.40
2022-08-23T13:46:32.615Z,13.15
2022-08-23T13:49:11.662Z,15.75
2022-08-23T13:52:18.690Z,14.65
2022-08-23T13:54:51.284Z,15.60
2022-08-23T13:57:21.687Z,17.23
2022-08-23T13:59:52.852Z,13.93
2022-08-23T14:02:22.621Z,13.15
2022-08-23T14:04:50.254Z,14.00
2022-08-23T14:07:18.331Z,15.93
2022-08-23T14:09:45.959Z,13.15
2022-08-23T14:12:21.291Z,12.02
2022-08-23T14:14:50.153Z,13.00
2022-08-23T14:17:20.459Z,13.77
2022-08-23T14:22:36.673Z,14.50
2022-08-23T14:25:06.602Z,12.32
2022-08-23T14:27:35.029Z,12.52
2022-08-23T14:30:04.874Z,11.98
2022-08-23T14:32:33.233Z,15.43
2022-08-23T14:35:01.243Z,14.60
2022-08-23T14:40:17.680Z,19.27
2022-08-23T14:42:47.043Z,30.70
2022-08-23T14:45:16.412Z,24.73
2022-08-23T14:47:44.064Z,20.85
2022-08-23T14:50:13.814Z,38.30
2022-08-23T14:52:45.786Z,15.70
2022-08-23T14:55:14.772Z,18.02
2022-08-23T14:57:42.868Z,23.45
2022-08-23T15:00:14.469Z,30.15
2022-08-23T15:02:46.845Z,22.98
2022-08-23T15:05:15.456Z,17.95
2022-08-23T15:07:43.544Z,19.15
2022-08-23T15:10:49.677Z,16.88
2022-08-23T15:13:19.205Z,18.60
2022-08-23T15:15:49.077Z,15.02
2022-08-23T15:18:17.169Z,19.77
2022-08-23T15:20:45.739Z,22.02
2022-08-23T15:23:13.664Z,16.42
2022-08-23T15:25:43.944Z,12.48
2022-08-23T15:28:15.908Z,14.45
2022-08-23T15:30:44.771Z,16.05
2022-08-23T15:33:12.549Z,16.13
2022-08-23T15:35:55.049Z,15.10
2022-08-23T15:38:24.994Z,13.90
2022-08-23T15:40:54.484Z,17.80
2022-08-23T15:43:23.463Z,13.75
2022-08-23T15:46:07.848Z,12.05
2022-08-23T15:51:24.923Z,13.75
2022-08-23T15:53:52.893Z,9.27
2022-08-23T15:56:27.203Z,13.25
2022-08-23T15:58:55.722Z,12.77
2022-08-23T16:01:25.698Z,11.18
2022-08-23T16:03:53.473Z,10.43
2022-08-23T16:06:21.236Z,9.40
2022-08-23T16:08:52.445Z,9.52
2022-08-23T16:11:21.671Z,11.80
2022-08-23T16:13:53.666Z,8.52
2022-08-23T16:16:32.273Z,9.15
2022-08-23T16:19:00.573Z,10.77
2022-08-23T16:21:30.184Z,7.45
2022-08-23T16:23:59.143Z,12.27
2022-08-23T16:26:34.841Z,12.20
2022-08-23T16:29:07.295Z,11.57
2022-08-23T16:31:39.065Z,10.93
2022-08-23T16:34:16.799Z,6.93
2022-08-23T16:36:47.499Z,9.20
2022-08-23T16:39:17.304Z,13.18
2022-08-23T16:41:45.079Z,7.65
2022-08-23T16:44:12.674Z,8.63
2022-08-23T16:46:43.023Z,8.13
2022-08-23T16:49:11.642Z,6.30
2022-08-23T16:51:39.169Z,10.13
2022-08-23T16:54:08.873Z,10.30
2022-08-23T16:56:38.282Z,8.02
2022-08-23T16:59:08.353Z,9.10
2022-08-23T17:01:57.850Z,6.50
2022-08-23T17:04:30.502Z,6.10
2022-08-23T17:06:59.904Z,7.68
2022-08-23T17:09:28.703Z,11.20
2022-08-23T17:11:58.371Z,7.57
2022-08-23T17:14:26.507Z,9.15
2022-08-23T17:16:55.405Z,16.88
2022-08-23T17:19:23.085Z,19.25
2022-08-23T17:21:50.968Z,133.70
2022-08-23T17:24:18.456Z,326.40
2022-08-23T17:26:45.979Z,281.35
2022-08-23T17:29:13.433Z,274.55
2022-08-23T17:31:41.861Z,90.85
2022-08-23T17:34:09.644Z,52.17
2022-08-23T17:36:46.120Z,17.35
2022-08-23T17:39:19.442Z,20.10
2022-08-23T17:41:47.432Z,12.07
2022-08-23T17:44:15.223Z,11.23
2022-08-23T17:46:45.073Z,11.63
2022-08-23T17:49:13.783Z,7.55
2022-08-23T17:51:41.559Z,7.00
2022-08-23T17:54:15.809Z,7.68
2022-08-23T17:56:50.492Z,7.68
2022-08-23T17:59:20.232Z,7.93
2022-08-23T18:01:47.964Z,8.50
2022-08-23T18:04:15.728Z,8.82
2022-08-23T18:06:43.829Z,8.95
2022-08-23T18:09:12.302Z,8.40
2022-08-23T18:11:39.898Z,8.90
2022-08-23T18:14:07.871Z,8.68
2022-08-23T18:16:36.054Z,10.15
2022-08-23T18:19:06.052Z,9.48
2022-08-23T18:21:38.578Z,8.57
2022-08-23T18:24:07.225Z,9.35
2022-08-23T18:26:54.793Z,8.15
2022-08-23T18:29:22.552Z,10.00
2022-08-23T18:31:50.167Z,12.55
2022-08-23T18:34:18.861Z,8.25
2022-08-23T18:36:47.360Z,7.72
2022-08-23T18:39:16.263Z,8.32
2022-08-23T18:41:43.892Z,9.63
2022-08-23T18:44:11.972Z,12.27
2022-08-23T18:46:42.445Z,8.45
2022-08-23T18:49:12.163Z,10.93
2022-08-23T18:51:42.102Z,10.13
2022-08-23T18:54:10.119Z,11.85
2022-08-23T18:56:37.859Z,9.30
2022-08-23T18:59:06.573Z,11.70
2022-08-23T19:01:39.417Z,14.35
2022-08-23T19:04:09.331Z,9.43
2022-08-23T19:06:37.058Z,11.90
2022-08-23T19:09:06.582Z,12.88
2022-08-23T19:11:35.361Z,11.45
2022-08-23T19:14:03.638Z,9.23
2022-08-23T19:16:32.284Z,11.75
2022-08-23T19:19:00.902Z,9.23
2022-08-23T19:21:29.023Z,12.20
2022-08-23T19:23:57.593Z,11.15
2022-08-23T19:26:32.896Z,12.50
2022-08-23T19:29:07.708Z,12.63
2022-08-23T19:31:41.756Z,13.40
2022-08-23T19:34:10.513Z,10.82
2022-08-23T19:36:48.285Z,12.52
2022-08-23T19:39:19.753Z,12.75
2022-08-23T19:41:48.842Z,10.80
2022-08-23T19:44:17.766Z,11.13
2022-08-23T19:46:46.091Z,13.02
2022-08-23T19:49:14.796Z,11.50
2022-08-23T19:51:43.735Z,11.23
2022-08-23T19:54:12.977Z,9.85
2022-08-23T19:56:44.912Z,11.77
2022-08-23T19:59:20.652Z,12.13
2022-08-23T20:01:49.988Z,10.57
2022-08-23T20:04:19.425Z,12.10
2022-08-23T20:06:48.922Z,10.50
2022-08-23T20:09:18.283Z,11.05
2022-08-23T20:11:46.291Z,12.10
2022-08-23T20:14:14.264Z,11.00
2022-08-23T20:16:42.526Z,14.13
2022-08-23T20:19:10.733Z,12.82
2022-08-23T20:21:39.952Z,11.07
2022-08-23T20:24:12.152Z,12.40
2022-08-23T20:26:49.242Z,12.65
2022-08-23T20:29:20.512Z,13.80
2022-08-23T20:31:56.762Z,10.00
2022-08-23T20:34:27.123Z,11.90
2022-08-23T20:36:56.498Z,13.45
2022-08-23T20:39:24.924Z,10.75
2022-08-23T20:41:53.587Z,13.65
2022-08-23T20:44:22.051Z,9.77
2022-08-23T20:46:53.960Z,11.57
2022-08-23T20:51:51.319Z,12.43
2022-08-23T20:54:19.752Z,12.60
2022-08-23T20:56:51.059Z,9.90
2022-08-23T20:59:19.593Z,12.43
2022-08-23T21:01:47.463Z,12.93
2022-08-23T21:04:15.315Z,9.07
2022-08-23T21:06:46.484Z,8.32
2022-08-23T21:09:17.306Z,16.30
2022-08-23T21:11:46.082Z,12.63
2022-08-23T21:14:16.392Z,12.07
2022-08-23T21:16:46.293Z,11.57
2022-08-23T21:19:14.914Z,10.63
2022-08-23T21:21:42.561Z,10.18
2022-08-23T21:24:11.415Z,12.18
2022-08-23T21:26:39.502Z,13.45
2022-08-23T21:29:08.151Z,10.25
2022-08-23T21:31:36.434Z,9.25
2022-08-23T21:34:04.033Z,15.13
2022-08-23T21:36:31.684Z,12.35
2022-08-23T21:38:59.304Z,11.88
2022-08-23T21:41:42.334Z,12.88
2022-08-23T21:44:13.308Z,9.18
2022-08-23T21:46:42.537Z,9.55
2022-08-23T21:49:12.510Z,9.68
2022-08-23T21:51:41.385Z,10.02
2022-08-23T21:54:11.792Z,9.30
2022-08-23T21:56:40.062Z,10.02
2022-08-23T21:59:10.133Z,10.35
2022-08-23T22:01:38.025Z,11.60
2022-08-23T22:04:08.225Z,11.90
2022-08-23T22:06:38.385Z,11.38
2022-08-23T22:09:11.144Z,8.38
2022-08-23T22:11:41.460Z,8.93
2022-08-23T22:14:11.529Z,13.20
2022-08-23T22:16:41.259Z,14.32
2022-08-23T22:19:08.841Z,10.00
2022-08-23T22:21:38.101Z,8.82
2022-08-23T22:24:07.260Z,10.20
2022-08-23T22:26:34.755Z,11.50
2022-08-23T22:29:02.374Z,11.75
2022-08-23T22:31:30.039Z,14.50
2022-08-23T22:33:57.644Z,9.82
2022-08-23T22:36:25.096Z,11.00
2022-08-23T22:38:52.670Z,15.38
2022-08-23T22:41:27.536Z,11.77
2022-08-23T22:43:56.833Z,12.32
2022-08-23T22:46:24.414Z,12.65
2022-08-23T22:48:53.701Z,12.27
2022-08-23T22:51:24.033Z,13.02
2022-08-23T22:53:56.294Z,10.73
2022-08-23T22:56:27.364Z,9.52
2022-08-23T22:58:55.213Z,10.13
2022-08-23T23:01:27.287Z,10.52
2022-08-23T23:03:57.837Z,9.95
2022-08-23T23:06:26.384Z,10.65
2022-08-23T23:08:55.064Z,11.32
2022-08-23T23:15:35.207Z,11.63
2022-08-23T23:18:03.075Z,10.73
2022-08-23T23:20:40.945Z,14.95
2022-08-23T23:23:11.286Z,10.55
2022-08-23T23:25:41.804Z,11.40
2022-08-23T23:28:09.515Z,10.43
2022-08-23T23:30:37.215Z,10.82
2022-08-23T23:33:05.641Z,13.20
2022-08-23T23:35:34.460Z,9.10
2022-08-23T23:38:02.368Z,9.30
2022-08-23T23:40:30.361Z,8.52
2022-08-23T23:42:57.894Z,9.60
2022-08-23T23:45:25.515Z,10.27
2022-08-23T23:47:53.059Z,14.25
2022-08-23T23:50:20.925Z,8.38
2022-08-23T23:52:48.375Z,8.05
2022-08-23T23:55:20.576Z,11.63
2022-08-23T23:57:48.485Z,11.45
